Time;durP1;ratioP1;P1;durP2;ratioP2;P2;SDS_P1;SDS_P2;PMS_P1;PMS_P2;Temp;Humidity;BMP_temperature;BMP_pressure;BME280_temperature;BME280_humidity;BME280_pressure;Samples;Min_cycle;Max_cycle;Signal;HPM_P1;HPM_P2
2022/09/23 04:48:00;;;;;;;12.60;8.23;;;;;;;4.78;100.00;100771.22;6573008;26;203617;-88
2022/09/23 05:09:33;;;;;;;13.65;8.20;;;;;;;4.86;100.00;100795.56;6606776;26;34101;-88
2022/09/23 05:12:36;;;;;;;13.77;8.60;;;;;;;4.89;100.00;100789.41;6622367;26;34175;-88
2022/09/23 05:15:45;;;;;;;11.20;8.80;;;;;;;4.92;100.00;100786.72;6616414;26;35064;-88
2022/09/23 05:18:49;;;;;;;11.35;8.95;;;;;;;5.05;100.00;100796.09;6613438;26;33900;-88
2022/09/23 05:21:51;;;;;;;15.90;8.52;;;;;;;5.12;100.00;100797.69;6609526;26;34613;-88
2022/09/23 05:24:54;;;;;;;13.38;8.30;;;;;;;5.19;100.00;100798.41;6594284;27;32302;-88
2022/09/23 05:27:59;;;;;;;15.52;9.25;;;;;;;5.25;100.00;100806.19;6612770;27;33095;-89
2022/09/23 05:38:30;;;;;;;16.45;7.50;;;;;;;6.03;100.00;100811.56;6607839;26;20309;-86
2022/09/23 05:41:33;;;;;;;10.05;7.72;;;;;;;6.13;100.00;100817.50;6608537;26;34016;-87
2022/09/23 05:44:36;;;;;;;10.18;7.78;;;;;;;6.10;100.00;100810.53;6608992;26;33573;-86
2022/09/23 05:47:38;;;;;;;14.15;8.23;;;;;;;6.22;100.00;100811.13;6594701;26;32146;-87
2022/09/23 05:50:52;;;;;;;11.00;7.72;;;;;;;6.27;100.00;100809.22;6615846;27;34036;-86
2022/09/23 05:53:57;;;;;;;15.98;8.05;;;;;;;6.38;100.00;100806.34;6608298;27;34173;-86
2022/09/23 05:56:59;;;;;;;11.68;7.30;;;;;;;6.40;100.00;100810.66;6607744;27;33891;-86
2022/09/23 06:00:07;;;;;;;14.25;7.70;;;;;;;6.83;100.00;100810.41;6609498;27;34600;-86
2022/09/23 06:03:14;;;;;;;9.90;7.12;;;;;;;7.25;100.00;100806.66;6602254;26;33851;-88
2022/09/23 06:06:23;;;;;;;11.70;7.50;;;;;;;7.32;100.00;100813.47;6589608;27;32601;-88
2022/09/23 06:13:11;;;;;;;8.95;7.18;;;;;;;7.61;100.00;100818.78;6614367;26;20039;-87
2022/09/23 06:27:22;;;;;;;10.30;7.97;;;;;;;8.08;100.00;100820.84;6601016;26;20071;-87
2022/09/23 06:30:25;;;;;;;9.77;8.02;;;;;;;8.00;100.00;100825.53;6607250;27;33678;-87
2022/09/23 06:33:29;;;;;;;14.77;7.70;;;;;;;8.22;100.00;100823.94;6607708;27;34967;-88
2022/09/23 06:36:41;;;;;;;11.27;7.75;;;;;;;8.41;100.00;100828.62;6582312;26;32649;-87
2022/09/23 06:39:49;;;;;;;10.20;7.43;;;;;;;8.49;100.00;100833.63;6608285;26;35085;-88
2022/09/23 06:43:01;;;;;;;13.60;7.43;;;;;;;8.70;100.00;100833.84;6608566;27;34495;-87
2022/09/23 06:49:41;;;;;;;11.77;7.57;;;;;;;9.21;100.00;100828.53;6600904;26;20079;-88
2022/09/23 06:56:23;;;;;;;12.25;7.43;;;;;;;9.56;100.00;100831.66;6611583;27;20071;-89
2022/09/23 06:59:26;;;;;;;9.73;6.80;;;;;;;9.90;99.02;100830.31;6607161;27;34289;-88
2022/09/23 07:02:29;;;;;;;16.52;7.10;;;;;;;10.19;98.17;100825.66;6588641;27;33222;-88
2022/09/23 07:05:32;;;;;;;9.88;7.30;;;;;;;10.54;96.86;100826.91;6609043;27;34067;-89
2022/09/23 07:08:34;;;;;;;13.95;7.97;;;;;;;10.75;94.54;100833.97;6589319;26;33322;-87
2022/09/23 07:11:38;;;;;;;12.55;8.35;;;;;;;10.80;93.83;100828.44;6587771;26;33511;-89
2022/09/23 07:14:41;;;;;;;11.30;7.90;;;;;;;10.77;92.24;100824.13;6607171;26;33706;-89
2022/09/23 07:17:43;;;;;;;13.60;7.85;;;;;;;11.16;91.64;100826.87;6608416;27;33822;-88
2022/09/23 07:20:47;;;;;;;13.05;7.65;;;;;;;11.46;89.88;100832.59;6602435;26;34690;-89
2022/09/23 07:23:50;;;;;;;14.32;6.85;;;;;;;11.71;85.68;100835.91;6610860;26;34231;-89
2022/09/23 07:26:54;;;;;;;12.95;6.62;;;;;;;11.79;85.24;100836.41;6596068;27;32587;-89
2022/09/23 07:29:57;;;;;;;7.32;5.78;;;;;;;11.93;82.92;100840.19;6603947;26;34443;-90
2022/09/23 07:33:00;;;;;;;9.45;6.10;;;;;;;12.31;79.98;100837.50;6581500;26;32529;-89
2022/09/23 07:36:23;;;;;;;6.30;5.32;;;;;;;12.65;80.06;100840.25;6602599;26;33670;-89
2022/09/23 07:43:09;;;;;;;8.43;6.00;;;;;;;13.86;72.50;100833.87;6609903;26;20063;-88
2022/09/23 07:49:57;;;;;;;7.53;6.43;;;;;;;16.83;59.77;100840.59;6606072;27;20072;-88
2022/09/23 07:53:01;;;;;;;9.50;6.70;;;;;;;17.59;57.67;100829.94;6600897;26;34302;-88
2022/09/23 07:56:05;;;;;;;11.80;6.70;;;;;;;18.24;53.14;100834.25;6607264;27;34132;-87
2022/09/23 07:59:14;;;;;;;13.15;6.28;;;;;;;19.32;50.88;100835.03;6608619;26;33855;-88
2022/09/23 08:16:47;;;;;;;5.12;4.37;;;;;;;29.55;27.81;100830.19;6548807;27;20060;-89
2022/09/23 08:23:38;;;;;;;8.75;4.60;;;;;;;25.99;31.56;100820.13;6573567;27;20149;-89
2022/09/23 08:26:42;;;;;;;9.97;4.50;;;;;;;26.08;32.08;100816.41;6532941;27;32814;-90
2022/09/23 08:29:44;;;;;;;4.70;4.30;;;;;;;24.59;34.63;100819.28;6534101;27;32833;-90
2022/09/23 08:32:49;;;;;;;5.15;4.60;;;;;;;23.22;36.17;100811.03;6555244;27;33745;-90
2022/09/23 08:35:58;;;;;;;4.90;4.40;;;;;;;22.40;38.69;100806.09;6562347;27;34955;-90
2022/09/23 08:39:01;;;;;;;6.12;4.47;;;;;;;21.81;40.52;100809.63;6552833;27;33924;-90
2022/09/23 08:42:03;;;;;;;4.95;4.47;;;;;;;20.96;40.20;100815.28;6555140;27;34303;-90
2022/09/23 08:45:26;;;;;;;6.68;4.75;;;;;;;19.67;44.93;100810.63;6558285;27;34899;-90
2022/09/23 08:48:37;;;;;;;7.12;4.78;;;;;;;20.42;43.85;100809.09;6552408;27;33785;-89
2022/09/23 08:51:45;;;;;;;7.28;5.07;;;;;;;20.67;44.23;100817.75;6533015;27;33752;-89
2022/09/23 08:54:47;;;;;;;5.65;4.93;;;;;;;19.76;44.77;100808.19;6551391;27;34483;-90
2022/09/23 08:58:23;;;;;;;5.20;4.68;;;;;;;20.12;44.13;100810.69;6551216;27;33650;-88
2022/09/23 09:01:41;;;;;;;6.57;4.22;;;;;;;19.69;44.69;100807.84;6553672;27;35173;-90
2022/09/23 09:23:37;;;;;;;5.75;5.07;;;;;;;19.30;46.90;100797.47;6559382;27;20064;-91
2022/09/23 09:26:40;;;;;;;5.03;3.65;;;;;;;19.43;46.30;100791.97;6571455;27;34272;-91
2022/09/23 09:33:30;;;;;;;6.35;5.00;;;;;;;20.17;46.55;100790.44;6580771;26;20057;-89
2022/09/23 09:36:34;;;;;;;6.85;4.93;;;;;;;20.03;45.14;100788.94;6579464;27;34125;-87
2022/09/23 09:39:37;;;;;;;7.35;5.45;;;;;;;18.58;47.91;100786.03;6560697;27;33460;-89
2022/09/23 09:46:40;;;;;;;6.22;5.10;;;;;;;17.96;50.68;100783.47;6579332;27;20076;-88
2022/09/23 09:50:02;;;;;;;5.47;4.97;;;;;;;18.93;49.89;100781.56;6576046;27;34218;-88
2022/09/23 09:53:26;;;;;;;6.87;5.07;;;;;;;20.11;45.78;100777.50;6582650;27;33955;-88
2022/09/23 10:03:32;;;;;;;4.97;3.87;;;;;;;21.03;43.50;100771.59;6606964;26;34690;-88
2022/09/23 10:06:35;;;;;;;5.35;4.45;;;;;;;21.62;41.18;100759.13;6610415;26;33474;-87
2022/09/23 10:09:46;;;;;;;4.95;4.45;;;;;;;20.71;42.55;100754.50;6610486;27;32657;-87
2022/09/23 10:16:33;;;;;;;4.35;3.95;;;;;;;21.81;40.77;100752.94;6610779;27;20056;-88
2022/09/23 10:19:42;;;;;;;4.97;4.47;;;;;;;22.91;40.15;100748.22;6613070;27;34718;-87
2022/09/23 10:22:45;;;;;;;6.50;4.62;;;;;;;24.03;36.02;100753.56;6613609;27;34745;-87
2022/09/23 10:25:57;;;;;;;5.30;4.43;;;;;;;26.24;31.21;100757.66;6594238;26;33943;-87
2022/09/23 10:29:17;;;;;;;5.68;4.37;;;;;;;26.08;31.27;100756.63;6589051;27;33558;-87
2022/09/23 10:32:32;;;;;;;;;;;;;;;25.90;31.14;100761.34;6598911;27;32613;-89
2022/09/23 13:01:39;;;;;;;4.20;3.12;;;;;;;18.50;41.70;100619.25;6577047;27;20056;-88
2022/09/23 13:08:23;;;;;;;4.68;3.55;;;;;;;19.83;39.37;100609.34;6584325;27;34249;-89
2022/09/23 13:11:31;;;;;;;4.22;3.72;;;;;;;19.87;40.36;100610.78;6567672;27;33615;-90
2022/09/23 13:14:36;;;;;;;4.28;3.87;;;;;;;18.93;40.82;100614.91;6570253;27;34153;-89
2022/09/23 13:17:39;;;;;;;3.90;3.60;;;;;;;19.33;40.52;100616.19;6584567;27;33990;-89
2022/09/23 13:20:44;;;;;;;6.37;3.95;;;;;;;19.10;40.45;100610.88;6586507;27;34370;-89
2022/09/23 13:24:29;;;;;;;5.57;3.28;;;;;;;18.83;41.55;100604.94;6583047;27;34068;-88
2022/09/23 13:27:34;;;;;;;7.68;3.72;;;;;;;18.58;41.81;100606.03;6426906;27;34102;-88
2022/09/23 13:30:47;;;;;;;4.15;3.30;;;;;;;18.32;42.28;100608.97;6445844;27;33813;-88
2022/09/23 13:34:00;;;;;;;4.22;3.40;;;;;;;18.31;42.54;100612.66;6445557;27;34616;-88
2022/09/23 13:37:21;;;;;;;3.50;3.12;;;;;;;18.00;42.72;100607.78;6444982;27;33881;-88
2022/09/23 13:40:27;;;;;;;3.58;3.28;;;;;;;17.98;41.63;100603.53;6448308;27;33679;-88
2022/09/23 14:02:56;;;;;;;3.92;3.50;;;;;;;18.13;41.95;100597.00;6587460;27;20056;-86
2022/09/23 14:06:01;;;;;;;5.37;3.53;;;;;;;17.64;43.15;100588.19;6582132;27;34659;-87
2022/09/23 14:09:05;;;;;;;4.10;3.30;;;;;;;17.27;44.72;100590.97;6586863;27;34204;-88
2022/09/23 14:12:09;;;;;;;4.87;3.45;;;;;;;16.97;46.72;100599.34;6585629;27;34674;-87
2022/09/23 14:15:17;;;;;;;7.72;4.10;;;;;;;16.92;48.71;100590.78;6583982;27;34786;-87
2022/09/23 14:18:29;;;;;;;6.03;4.28;;;;;;;16.76;47.95;100592.84;6583065;27;33686;-87
2022/09/23 14:25:17;;;;;;;4.75;3.92;;;;;;;16.51;49.29;100575.87;6586018;27;20068;-88
2022/09/23 14:28:23;;;;;;;4.18;3.75;;;;;;;16.48;49.45;100578.75;6576542;27;33836;-88
2022/09/23 14:31:26;;;;;;;6.03;4.30;;;;;;;16.38;50.61;100575.87;6589679;27;35196;-88
2022/09/23 14:34:41;;;;;;;4.12;3.72;;;;;;;16.22;51.92;100577.00;6587241;27;34826;-88
2022/09/23 14:41:25;;;;;;;4.95;3.37;;;;;;;16.26;50.44;100573.16;6582478;27;35448;-91
2022/09/23 14:44:46;;;;;;;4.87;3.35;;;;;;;16.75;50.90;100570.56;6584418;27;34988;-88
2022/09/23 14:47:52;;;;;;;6.90;4.05;;;;;;;16.91;50.27;100574.81;6554902;27;32308;-89
2022/09/23 14:50:58;;;;;;;4.05;3.45;;;;;;;16.90;47.62;100568.59;6566770;27;32916;-87
2022/09/23 14:54:49;;;;;;;4.85;3.35;;;;;;;16.99;49.18;100564.38;6583800;27;34518;-88
2022/09/23 14:58:00;;;;;;;3.50;3.22;;;;;;;17.00;47.77;100559.88;6427135;27;34061;-87
2022/09/23 15:01:31;;;;;;;4.85;3.58;;;;;;;16.92;46.98;100558.63;6444375;27;33864;-88
2022/09/23 15:04:35;;;;;;;4.35;3.10;;;;;;;16.71;46.46;100556.53;6434115;27;33781;-88
2022/09/23 15:07:38;;;;;;;3.50;3.20;;;;;;;16.65;48.89;100554.31;6438761;27;33076;-88
2022/09/23 15:10:41;;;;;;;3.83;3.22;;;;;;;16.24;53.76;100559.00;6444395;27;33208;-88
2022/09/23 15:13:49;;;;;;;3.95;3.15;;;;;;;16.30;52.76;100555.87;6447706;27;34190;-87
